sensor_id;sensor_type;location;lat;lon;timestamp;temperature;humidity
21033;DHT22;10675;47.976;7.824;2023-02-15T00:00:14;0.30;99.90
21033;DHT22;10675;47.976;7.824;2023-02-15T00:02:40;0.40;99.90
21033;DHT22;10675;47.976;7.824;2023-02-15T00:05:06;0.30;99.90
21033;DHT22;10675;47.976;7.824;2023-02-15T00:07:32;0.40;99.90
21033;DHT22;10675;47.976;7.824;2023-02-15T00:09:58;0.30;99.90
21033;DHT22;10675;47.976;7.824;2023-02-15T00:12:24;0.30;99.90
21033;DHT22;10675;47.976;7.824;2023-02-15T00:14:49;0.20;99.90
21033;DHT22;10675;47.976;7.824;2023-02-15T00:17:15;0.20;99.90
21033;DHT22;10675;47.976;7.824;2023-02-15T00:19:41;0.20;99.90
21033;DHT22;10675;47.976;7.824;2023-02-15T00:22:06;0.10;99.90
21033;DHT22;10675;47.976;7.824;2023-02-15T00:24:32;0.00;99.90
21033;DHT22;10675;47.976;7.824;2023-02-15T00:26:58;0.10;99.90
21033;DHT22;10675;47.976;7.824;2023-02-15T00:29:24;0.00;99.90
21033;DHT22;10675;47.976;7.824;2023-02-15T00:31:50;0.00;99.90
21033;DHT22;10675;47.976;7.824;2023-02-15T00:34:21;0.00;99.90
21033;DHT22;10675;47.976;7.824;2023-02-15T00:39:31;0.00;99.90
21033;DHT22;10675;47.976;7.824;2023-02-15T00:41:57;0.00;99.90
21033;DHT22;10675;47.976;7.824;2023-02-15T00:44:22;0.10;99.90
21033;DHT22;10675;47.976;7.824;2023-02-15T00:46:48;0.00;99.90
21033;DHT22;10675;47.976;7.824;2023-02-15T00:49:13;0.00;99.90
21033;DHT22;10675;47.976;7.824;2023-02-15T00:51:39;0.20;99.90
21033;DHT22;10675;47.976;7.824;2023-02-15T00:54:05;0.10;99.90
21033;DHT22;10675;47.976;7.824;2023-02-15T00:56:30;0.00;99.90
21033;DHT22;10675;47.976;7.824;2023-02-15T00:58:56;0.00;99.90
21033;DHT22;10675;47.976;7.824;2023-02-15T01:01:22;0.00;99.90
21033;DHT22;10675;47.976;7.824;2023-02-15T01:03:49;0.00;99.90
21033;DHT22;10675;47.976;7.824;2023-02-15T01:06:15;-0.10;99.90
21033;DHT22;10675;47.976;7.824;2023-02-15T01:08:41;-0.10;99.90
21033;DHT22;10675;47.976;7.824;2023-02-15T01:11:21;-0.20;99.90
21033;DHT22;10675;47.976;7.824;2023-02-15T01:13:51;-0.20;99.90
21033;DHT22;10675;47.976;7.824;2023-02-15T01:16:18;-0.20;99.90
21033;DHT22;10675;47.976;7.824;2023-02-15T01:18:44;-0.10;99.90
21033;DHT22;10675;47.976;7.824;2023-02-15T01:21:14;-0.20;99.90
21033;DHT22;10675;47.976;7.824;2023-02-15T01:23:41;-0.10;99.90
21033;DHT22;10675;47.976;7.824;2023-02-15T01:26:08;-0.10;99.90
21033;DHT22;10675;47.976;7.824;2023-02-15T01:28:34;-0.20;99.90
21033;DHT22;10675;47.976;7.824;2023-02-15T01:31:11;-0.30;99.90
21033;DHT22;10675;47.976;7.824;2023-02-15T01:33:37;-0.30;99.90
21033;DHT22;10675;47.976;7.824;2023-02-15T01:36:03;-0.20;99.90
21033;DHT22;10675;47.976;7.824;2023-02-15T01:38:29;-0.10;99.90
21033;DHT22;10675;47.976;7.824;2023-02-15T01:40:55;-0.10;99.90
21033;DHT22;10675;47.976;7.824;2023-02-15T01:43:58;-0.10;99.90
21033;DHT22;10675;47.976;7.824;2023-02-15T01:46:34;-0.10;99.90
21033;DHT22;10675;47.976;7.824;2023-02-15T01:49:21;-0.10;99.90
21033;DHT22;10675;47.976;7.824;2023-02-15T01:51:48;-0.10;99.90
21033;DHT22;10675;47.976;7.824;2023-02-15T01:54:36;-0.10;99.90
21033;DHT22;10675;47.976;7.824;2023-02-15T01:57:05;-0.10;99.90
21033;DHT22;10675;47.976;7.824;2023-02-15T01:59:33;-0.20;99.90
21033;DHT22;10675;47.976;7.824;2023-02-15T02:02:01;-0.20;99.90
21033;DHT22;10675;47.976;7.824;2023-02-15T02:04:37;-0.30;99.90
21033;DHT22;10675;47.976;7.824;2023-02-15T02:07:06;-0.20;99.90
21033;DHT22;10675;47.976;7.824;2023-02-15T02:09:32;-0.40;99.90
21033;DHT22;10675;47.976;7.824;2023-02-15T02:11:58;-0.40;99.90
21033;DHT22;10675;47.976;7.824;2023-02-15T02:14:24;-0.40;99.90
21033;DHT22;10675;47.976;7.824;2023-02-15T02:17:07;-0.30;99.90
21033;DHT22;10675;47.976;7.824;2023-02-15T02:25:23;-0.40;99.90
21033;DHT22;10675;47.976;7.824;2023-02-15T02:28:01;-0.40;99.90
21033;DHT22;10675;47.976;7.824;2023-02-15T02:33:33;-0.40;99.90
21033;DHT22;10675;47.976;7.824;2023-02-15T02:36:14;-0.40;99.90
21033;DHT22;10675;47.976;7.824;2023-02-15T02:39:06;-0.30;99.90
21033;DHT22;10675;47.976;7.824;2023-02-15T02:44:38;-0.30;99.90
21033;DHT22;10675;47.976;7.824;2023-02-15T02:47:30;-0.20;99.90
21033;DHT22;10675;47.976;7.824;2023-02-15T02:50:01;-0.30;99.90
21033;DHT22;10675;47.976;7.824;2023-02-15T02:52:41;-0.30;99.90
21033;DHT22;10675;47.976;7.824;2023-02-15T03:00:40;-0.30;99.90
21033;DHT22;10675;47.976;7.824;2023-02-15T03:03:20;-0.30;99.90
21033;DHT22;10675;47.976;7.824;2023-02-15T03:05:52;-0.30;99.90
21033;DHT22;10675;47.976;7.824;2023-02-15T03:08:20;-0.40;99.90
21033;DHT22;10675;47.976;7.824;2023-02-15T03:10:53;-0.40;99.90
21033;DHT22;10675;47.976;7.824;2023-02-15T03:13:21;-0.50;99.90
21033;DHT22;10675;47.976;7.824;2023-02-15T03:15:48;-0.50;99.90
21033;DHT22;10675;47.976;7.824;2023-02-15T03:18:38;-0.50;99.90
21033;DHT22;10675;47.976;7.824;2023-02-15T03:21:05;-0.60;99.90
21033;DHT22;10675;47.976;7.824;2023-02-15T03:23:32;-0.60;99.90
21033;DHT22;10675;47.976;7.824;2023-02-15T03:26:04;-0.60;99.90
21033;DHT22;10675;47.976;7.824;2023-02-15T03:28:36;-0.60;99.90
21033;DHT22;10675;47.976;7.824;2023-02-15T03:31:05;-0.60;99.90
21033;DHT22;10675;47.976;7.824;2023-02-15T03:33:35;-0.60;99.90
21033;DHT22;10675;47.976;7.824;2023-02-15T03:36:11;-0.60;99.90
21033;DHT22;10675;47.976;7.824;2023-02-15T03:39:02;-0.70;99.90
21033;DHT22;10675;47.976;7.824;2023-02-15T03:41:34;-0.70;99.90
21033;DHT22;10675;47.976;7.824;2023-02-15T03:44:13;-0.70;99.90
21033;DHT22;10675;47.976;7.824;2023-02-15T03:46:46;-0.70;99.90
21033;DHT22;10675;47.976;7.824;2023-02-15T03:49:21;-0.70;99.90
21033;DHT22;10675;47.976;7.824;2023-02-15T03:51:50;-0.70;99.90
21033;DHT22;10675;47.976;7.824;2023-02-15T03:54:24;-0.70;99.90
21033;DHT22;10675;47.976;7.824;2023-02-15T03:57:34;-0.70;99.90
21033;DHT22;10675;47.976;7.824;2023-02-15T04:00:22;-0.60;99.90
21033;DHT22;10675;47.976;7.824;2023-02-15T04:06:13;-0.60;99.90
21033;DHT22;10675;47.976;7.824;2023-02-15T04:08:39;-0.60;99.90
21033;DHT22;10675;47.976;7.824;2023-02-15T04:11:23;-0.60;99.90
21033;DHT22;10675;47.976;7.824;2023-02-15T04:13:49;-0.70;99.90
21033;DHT22;10675;47.976;7.824;2023-02-15T04:16:24;-0.70;99.90
21033;DHT22;10675;47.976;7.824;2023-02-15T04:18:50;-0.70;99.90
21033;DHT22;10675;47.976;7.824;2023-02-15T04:21:34;-0.80;99.90
21033;DHT22;10675;47.976;7.824;2023-02-15T04:24:18;-0.80;99.90
21033;DHT22;10675;47.976;7.824;2023-02-15T04:27:04;-0.80;99.90
21033;DHT22;10675;47.976;7.824;2023-02-15T04:29:31;-0.90;99.90
21033;DHT22;10675;47.976;7.824;2023-02-15T04:31:59;-0.90;99.90
21033;DHT22;10675;47.976;7.824;2023-02-15T04:34:25;-0.80;99.90
21033;DHT22;10675;47.976;7.824;2023-02-15T04:36:51;-0.80;99.90
21033;DHT22;10675;47.976;7.824;2023-02-15T04:39:17;-0.80;99.90
21033;DHT22;10675;47.976;7.824;2023-02-15T04:41:44;-0.80;99.90
21033;DHT22;10675;47.976;7.824;2023-02-15T04:44:09;-0.80;99.90
21033;DHT22;10675;47.976;7.824;2023-02-15T04:46:35;-0.80;99.90
21033;DHT22;10675;47.976;7.824;2023-02-15T04:49:01;-0.90;99.90
21033;DHT22;10675;47.976;7.824;2023-02-15T04:51:26;-0.90;99.90
21033;DHT22;10675;47.976;7.824;2023-02-15T04:53:52;-1.00;99.90
21033;DHT22;10675;47.976;7.824;2023-02-15T04:56:21;-1.00;99.90
21033;DHT22;10675;47.976;7.824;2023-02-15T04:58:47;-1.00;99.90
21033;DHT22;10675;47.976;7.824;2023-02-15T05:01:12;-0.90;99.90
21033;DHT22;10675;47.976;7.824;2023-02-15T05:03:38;-0.90;99.90
21033;DHT22;10675;47.976;7.824;2023-02-15T05:06:04;-1.00;99.90
21033;DHT22;10675;47.976;7.824;2023-02-15T05:08:30;-1.00;99.90
21033;DHT22;10675;47.976;7.824;2023-02-15T05:10:56;-1.00;99.90
21033;DHT22;10675;47.976;7.824;2023-02-15T05:13:22;-1.00;99.90
21033;DHT22;10675;47.976;7.824;2023-02-15T05:15:48;-1.00;99.90
21033;DHT22;10675;47.976;7.824;2023-02-15T05:18:15;-1.10;99.90
21033;DHT22;10675;47.976;7.824;2023-02-15T05:20:40;-1.10;99.90
21033;DHT22;10675;47.976;7.824;2023-02-15T05:23:06;-1.10;99.90
21033;DHT22;10675;47.976;7.824;2023-02-15T05:25:31;-1.00;99.90
21033;DHT22;10675;47.976;7.824;2023-02-15T05:28:15;-1.00;99.90
21033;DHT22;10675;47.976;7.824;2023-02-15T05:30:51;-1.00;99.90
21033;DHT22;10675;47.976;7.824;2023-02-15T05:33:24;-1.00;99.90
21033;DHT22;10675;47.976;7.824;2023-02-15T05:35:49;-1.00;99.90
21033;DHT22;10675;47.976;7.824;2023-02-15T05:38:16;-1.00;99.90
21033;DHT22;10675;47.976;7.824;2023-02-15T05:40:41;-1.00;99.90
21033;DHT22;10675;47.976;7.824;2023-02-15T05:43:07;-1.10;99.90
21033;DHT22;10675;47.976;7.824;2023-02-15T05:45:32;-1.10;99.90
21033;DHT22;10675;47.976;7.824;2023-02-15T05:47:58;-1.10;99.90
21033;DHT22;10675;47.976;7.824;2023-02-15T05:50:24;-1.10;99.90
21033;DHT22;10675;47.976;7.824;2023-02-15T05:52:50;-1.10;99.90
21033;DHT22;10675;47.976;7.824;2023-02-15T05:55:15;-1.10;99.90
21033;DHT22;10675;47.976;7.824;2023-02-15T05:57:41;-1.10;99.90
21033;DHT22;10675;47.976;7.824;2023-02-15T06:00:07;-1.10;99.90
21033;DHT22;10675;47.976;7.824;2023-02-15T06:02:35;-1.10;99.90
21033;DHT22;10675;47.976;7.824;2023-02-15T06:05:01;-1.10;99.90
21033;DHT22;10675;47.976;7.824;2023-02-15T06:07:27;-1.00;99.90
21033;DHT22;10675;47.976;7.824;2023-02-15T06:09:52;-1.00;99.90
21033;DHT22;10675;47.976;7.824;2023-02-15T06:12:18;-1.00;99.90
21033;DHT22;10675;47.976;7.824;2023-02-15T06:14:43;-1.00;99.90
21033;DHT22;10675;47.976;7.824;2023-02-15T06:17:09;-1.00;99.90
21033;DHT22;10675;47.976;7.824;2023-02-15T06:19:35;-1.00;99.90
21033;DHT22;10675;47.976;7.824;2023-02-15T06:22:00;-1.00;99.90
21033;DHT22;10675;47.976;7.824;2023-02-15T06:24:26;-1.00;99.90
21033;DHT22;10675;47.976;7.824;2023-02-15T06:26:51;-1.00;99.90
21033;DHT22;10675;47.976;7.824;2023-02-15T06:29:17;-1.00;99.90
21033;DHT22;10675;47.976;7.824;2023-02-15T06:31:42;-0.90;99.90
21033;DHT22;10675;47.976;7.824;2023-02-15T06:34:08;-0.90;99.90
21033;DHT22;10675;47.976;7.824;2023-02-15T06:36:33;-1.00;99.90
21033;DHT22;10675;47.976;7.824;2023-02-15T06:38:59;-1.00;99.90
21033;DHT22;10675;47.976;7.824;2023-02-15T06:41:24;-0.80;99.90
21033;DHT22;10675;47.976;7.824;2023-02-15T06:43:50;-1.00;99.90
21033;DHT22;10675;47.976;7.824;2023-02-15T06:46:16;-1.10;99.90
21033;DHT22;10675;47.976;7.824;2023-02-15T06:48:41;-1.00;99.90
21033;DHT22;10675;47.976;7.824;2023-02-15T06:51:07;-0.90;99.90
21033;DHT22;10675;47.976;7.824;2023-02-15T06:53:33;-1.00;99.90
21033;DHT22;10675;47.976;7.824;2023-02-15T06:56:03;-1.00;99.90
21033;DHT22;10675;47.976;7.824;2023-02-15T06:58:40;-0.90;99.90
21033;DHT22;10675;47.976;7.824;2023-02-15T07:01:07;-0.90;99.90
21033;DHT22;10675;47.976;7.824;2023-02-15T07:03:33;-1.00;99.90
21033;DHT22;10675;47.976;7.824;2023-02-15T07:06:01;-1.00;99.90
21033;DHT22;10675;47.976;7.824;2023-02-15T07:08:27;-1.10;99.90
21033;DHT22;10675;47.976;7.824;2023-02-15T07:10:54;-1.10;99.90
21033;DHT22;10675;47.976;7.824;2023-02-15T07:13:20;-1.10;99.90
21033;DHT22;10675;47.976;7.824;2023-02-15T07:15:47;-1.10;99.90
21033;DHT22;10675;47.976;7.824;2023-02-15T07:18:12;-1.10;99.90
21033;DHT22;10675;47.976;7.824;2023-02-15T07:20:38;-1.00;99.90
21033;DHT22;10675;47.976;7.824;2023-02-15T07:23:05;-1.00;99.90
21033;DHT22;10675;47.976;7.824;2023-02-15T07:25:31;-1.00;99.90
21033;DHT22;10675;47.976;7.824;2023-02-15T07:28:02;-1.00;99.90
21033;DHT22;10675;47.976;7.824;2023-02-15T07:30:29;-1.00;99.90
21033;DHT22;10675;47.976;7.824;2023-02-15T07:32:58;-1.10;99.90
21033;DHT22;10675;47.976;7.824;2023-02-15T07:35:47;-1.10;99.90
21033;DHT22;10675;47.976;7.824;2023-02-15T07:38:13;-1.10;99.90
21033;DHT22;10675;47.976;7.824;2023-02-15T07:40:38;-1.00;99.90
21033;DHT22;10675;47.976;7.824;2023-02-15T07:43:04;-0.80;99.90
21033;DHT22;10675;47.976;7.824;2023-02-15T07:45:29;-0.80;99.90
21033;DHT22;10675;47.976;7.824;2023-02-15T07:47:55;-0.80;99.90
21033;DHT22;10675;47.976;7.824;2023-02-15T07:50:21;-0.70;99.90
21033;DHT22;10675;47.976;7.824;2023-02-15T07:52:46;-0.70;99.90
21033;DHT22;10675;47.976;7.824;2023-02-15T07:55:12;-0.70;99.90
21033;DHT22;10675;47.976;7.824;2023-02-15T07:57:42;-0.70;99.90
21033;DHT22;10675;47.976;7.824;2023-02-15T08:00:08;-0.60;99.90
21033;DHT22;10675;47.976;7.824;2023-02-15T08:02:34;-0.50;99.90
21033;DHT22;10675;47.976;7.824;2023-02-15T08:05:02;-0.40;99.90
21033;DHT22;10675;47.976;7.824;2023-02-15T08:07:28;-0.40;99.90
21033;DHT22;10675;47.976;7.824;2023-02-15T08:09:53;-0.50;99.90
21033;DHT22;10675;47.976;7.824;2023-02-15T08:12:19;-0.40;99.90
21033;DHT22;10675;47.976;7.824;2023-02-15T08:14:44;-0.40;99.90
21033;DHT22;10675;47.976;7.824;2023-02-15T08:17:10;-0.50;99.90
21033;DHT22;10675;47.976;7.824;2023-02-15T08:19:36;-0.50;99.90
21033;DHT22;10675;47.976;7.824;2023-02-15T08:22:06;-0.40;99.90
21033;DHT22;10675;47.976;7.824;2023-02-15T08:24:34;-0.30;99.90
21033;DHT22;10675;47.976;7.824;2023-02-15T08:27:00;-0.30;99.90
21033;DHT22;10675;47.976;7.824;2023-02-15T08:29:29;-0.30;99.90
21033;DHT22;10675;47.976;7.824;2023-02-15T08:31:57;-0.40;99.90
21033;DHT22;10675;47.976;7.824;2023-02-15T08:34:24;-0.50;99.90
21033;DHT22;10675;47.976;7.824;2023-02-15T08:36:50;-0.60;99.90
21033;DHT22;10675;47.976;7.824;2023-02-15T08:39:16;-0.40;99.90
21033;DHT22;10675;47.976;7.824;2023-02-15T08:41:43;-0.50;99.90
21033;DHT22;10675;47.976;7.824;2023-02-15T08:44:09;-0.50;99.90
21033;DHT22;10675;47.976;7.824;2023-02-15T08:46:38;-0.50;99.90
21033;DHT22;10675;47.976;7.824;2023-02-15T08:49:04;-0.40;99.90
21033;DHT22;10675;47.976;7.824;2023-02-15T08:51:32;-0.40;99.90
21033;DHT22;10675;47.976;7.824;2023-02-15T08:54:00;-0.20;99.90
21033;DHT22;10675;47.976;7.824;2023-02-15T08:56:28;0.00;99.90
21033;DHT22;10675;47.976;7.824;2023-02-15T08:58:54;0.00;99.90
21033;DHT22;10675;47.976;7.824;2023-02-15T09:01:23;0.00;99.90
21033;DHT22;10675;47.976;7.824;2023-02-15T09:03:51;0.20;99.90
21033;DHT22;10675;47.976;7.824;2023-02-15T09:06:19;0.40;99.90
21033;DHT22;10675;47.976;7.824;2023-02-15T09:08:44;0.40;99.90
21033;DHT22;10675;47.976;7.824;2023-02-15T09:11:13;0.50;99.90
21033;DHT22;10675;47.976;7.824;2023-02-15T09:13:39;0.60;99.90
21033;DHT22;10675;47.976;7.824;2023-02-15T09:16:07;0.60;99.90
21033;DHT22;10675;47.976;7.824;2023-02-15T09:18:38;0.60;99.90
21033;DHT22;10675;47.976;7.824;2023-02-15T09:21:09;0.40;99.90
21033;DHT22;10675;47.976;7.824;2023-02-15T09:23:35;0.40;99.90
21033;DHT22;10675;47.976;7.824;2023-02-15T09:26:05;0.50;99.90
21033;DHT22;10675;47.976;7.824;2023-02-15T09:28:31;0.50;99.90
21033;DHT22;10675;47.976;7.824;2023-02-15T09:33:34;0.50;99.90
21033;DHT22;10675;47.976;7.824;2023-02-15T09:36:00;0.60;99.90
21033;DHT22;10675;47.976;7.824;2023-02-15T09:38:25;0.60;99.90
21033;DHT22;10675;47.976;7.824;2023-02-15T09:43:46;0.50;99.90
21033;DHT22;10675;47.976;7.824;2023-02-15T09:46:33;0.80;99.90
21033;DHT22;10675;47.976;7.824;2023-02-15T09:49:15;0.70;99.90
21033;DHT22;10675;47.976;7.824;2023-02-15T09:57:19;1.10;99.90
21033;DHT22;10675;47.976;7.824;2023-02-15T10:00:02;1.20;99.90
21033;DHT22;10675;47.976;7.824;2023-02-15T10:02:41;0.90;99.90
21033;DHT22;10675;47.976;7.824;2023-02-15T10:05:24;0.90;99.90
21033;DHT22;10675;47.976;7.824;2023-02-15T10:10:59;1.20;99.90
21033;DHT22;10675;47.976;7.824;2023-02-15T10:20:08;1.40;99.90
21033;DHT22;10675;47.976;7.824;2023-02-15T10:28:04;1.40;99.90
21033;DHT22;10675;47.976;7.824;2023-02-15T10:30:46;1.40;99.90
21033;DHT22;10675;47.976;7.824;2023-02-15T10:39:25;2.00;99.90
21033;DHT22;10675;47.976;7.824;2023-02-15T10:48:16;1.80;99.90
21033;DHT22;10675;47.976;7.824;2023-02-15T10:50:56;2.10;99.90
21033;DHT22;10675;47.976;7.824;2023-02-15T10:54:03;2.20;99.90
21033;DHT22;10675;47.976;7.824;2023-02-15T10:56:50;2.10;99.90
21033;DHT22;10675;47.976;7.824;2023-02-15T11:05:02;2.40;99.90
21033;DHT22;10675;47.976;7.824;2023-02-15T11:07:38;2.60;99.90
21033;DHT22;10675;47.976;7.824;2023-02-15T11:12:52;2.80;99.90
21033;DHT22;10675;47.976;7.824;2023-02-15T11:15:34;2.80;99.90
21033;DHT22;10675;47.976;7.824;2023-02-15T11:18:15;2.90;99.90
21033;DHT22;10675;47.976;7.824;2023-02-15T11:21:09;3.10;99.90
21033;DHT22;10675;47.976;7.824;2023-02-15T11:23:40;3.20;99.90
21033;DHT22;10675;47.976;7.824;2023-02-15T11:26:21;3.50;99.90
21033;DHT22;10675;47.976;7.824;2023-02-15T11:28:54;3.80;99.90
21033;DHT22;10675;47.976;7.824;2023-02-15T11:31:23;4.00;99.90
21033;DHT22;10675;47.976;7.824;2023-02-15T11:33:57;4.20;99.90
21033;DHT22;10675;47.976;7.824;2023-02-15T11:36:36;4.40;99.90
21033;DHT22;10675;47.976;7.824;2023-02-15T11:39:12;4.40;99.90
21033;DHT22;10675;47.976;7.824;2023-02-15T11:41:44;4.50;99.90
21033;DHT22;10675;47.976;7.824;2023-02-15T11:44:17;4.60;99.90
21033;DHT22;10675;47.976;7.824;2023-02-15T11:46:43;4.60;99.90
21033;DHT22;10675;47.976;7.824;2023-02-15T11:49:24;4.50;99.90
21033;DHT22;10675;47.976;7.824;2023-02-15T11:51:52;4.80;99.90
21033;DHT22;10675;47.976;7.824;2023-02-15T11:54:30;4.80;99.90
21033;DHT22;10675;47.976;7.824;2023-02-15T11:57:02;5.00;99.90
21033;DHT22;10675;47.976;7.824;2023-02-15T11:59:34;4.90;99.90
21033;DHT22;10675;47.976;7.824;2023-02-15T12:02:02;5.00;99.90
21033;DHT22;10675;47.976;7.824;2023-02-15T12:04:35;5.00;99.90
21033;DHT22;10675;47.976;7.824;2023-02-15T12:07:46;5.20;99.90
21033;DHT22;10675;47.976;7.824;2023-02-15T12:10:17;5.30;99.90
21033;DHT22;10675;47.976;7.824;2023-02-15T12:12:43;5.30;99.90
21033;DHT22;10675;47.976;7.824;2023-02-15T12:15:13;5.50;99.90
21033;DHT22;10675;47.976;7.824;2023-02-15T12:17:50;5.70;99.90
21033;DHT22;10675;47.976;7.824;2023-02-15T12:22:54;5.70;99.90
21033;DHT22;10675;47.976;7.824;2023-02-15T12:25:33;5.60;99.90
21033;DHT22;10675;47.976;7.824;2023-02-15T12:28:00;5.70;99.90
21033;DHT22;10675;47.976;7.824;2023-02-15T12:30:32;5.70;99.90
21033;DHT22;10675;47.976;7.824;2023-02-15T12:38:40;5.60;99.90
21033;DHT22;10675;47.976;7.824;2023-02-15T12:41:25;5.90;99.90
21033;DHT22;10675;47.976;7.824;2023-02-15T12:44:09;6.20;99.90
21033;DHT22;10675;47.976;7.824;2023-02-15T12:46:40;6.20;99.90
21033;DHT22;10675;47.976;7.824;2023-02-15T12:51:50;6.50;99.90
21033;DHT22;10675;47.976;7.824;2023-02-15T12:54:42;6.50;99.90
21033;DHT22;10675;47.976;7.824;2023-02-15T13:02:40;6.80;99.90
21033;DHT22;10675;47.976;7.824;2023-02-15T13:07:45;6.70;99.90
21033;DHT22;10675;47.976;7.824;2023-02-15T13:10:23;6.80;99.90
21033;DHT22;10675;47.976;7.824;2023-02-15T13:12:50;6.80;99.90
21033;DHT22;10675;47.976;7.824;2023-02-15T13:15:25;6.90;99.90
21033;DHT22;10675;47.976;7.824;2023-02-15T13:17:52;7.20;99.90
21033;DHT22;10675;47.976;7.824;2023-02-15T13:20:21;7.30;99.90
21033;DHT22;10675;47.976;7.824;2023-02-15T13:22:51;7.30;99.90
21033;DHT22;10675;47.976;7.824;2023-02-15T13:25:20;7.40;99.90
21033;DHT22;10675;47.976;7.824;2023-02-15T13:27:51;7.40;99.90
21033;DHT22;10675;47.976;7.824;2023-02-15T13:30:43;7.60;99.90
21033;DHT22;10675;47.976;7.824;2023-02-15T13:33:20;7.60;99.90
21033;DHT22;10675;47.976;7.824;2023-02-15T13:41:04;8.30;99.90
21033;DHT22;10675;47.976;7.824;2023-02-15T13:49:11;8.60;99.90
21033;DHT22;10675;47.976;7.824;2023-02-15T13:54:36;9.10;99.90
21033;DHT22;10675;47.976;7.824;2023-02-15T13:57:26;9.30;99.90
21033;DHT22;10675;47.976;7.824;2023-02-15T14:00:08;9.10;99.90
21033;DHT22;10675;47.976;7.824;2023-02-15T14:05:49;9.60;99.90
21033;DHT22;10675;47.976;7.824;2023-02-15T14:08:54;9.80;99.90
21033;DHT22;10675;47.976;7.824;2023-02-15T14:17:41;10.00;99.90
21033;DHT22;10675;47.976;7.824;2023-02-15T14:20:49;10.00;99.90
21033;DHT22;10675;47.976;7.824;2023-02-15T14:25:28;10.10;99.90
21033;DHT22;10675;47.976;7.824;2023-02-15T14:28:09;10.00;99.90
21033;DHT22;10675;47.976;7.824;2023-02-15T14:30:44;10.00;99.90
21033;DHT22;10675;47.976;7.824;2023-02-15T14:33:37;10.10;99.90
21033;DHT22;10675;47.976;7.824;2023-02-15T14:36:06;10.30;99.90
21033;DHT22;10675;47.976;7.824;2023-02-15T14:41:31;10.60;99.90
21033;DHT22;10675;47.976;7.824;2023-02-15T14:49:11;10.90;99.90
21033;DHT22;10675;47.976;7.824;2023-02-15T14:54:08;11.60;99.40
21033;DHT22;10675;47.976;7.824;2023-02-15T14:56:34;11.70;99.20
21033;DHT22;10675;47.976;7.824;2023-02-15T15:01:40;11.90;97.80
21033;DHT22;10675;47.976;7.824;2023-02-15T15:04:09;12.40;97.10
21033;DHT22;10675;47.976;7.824;2023-02-15T15:09:27;13.00;99.90
21033;DHT22;10675;47.976;7.824;2023-02-15T15:12:12;13.00;94.10
21033;DHT22;10675;47.976;7.824;2023-02-15T15:35:49;12.00;93.60
21033;DHT22;10675;47.976;7.824;2023-02-15T15:38:38;11.50;94.60
21033;DHT22;10675;47.976;7.824;2023-02-15T15:44:30;11.20;95.30
21033;DHT22;10675;47.976;7.824;2023-02-15T15:47:19;11.30;95.30
21033;DHT22;10675;47.976;7.824;2023-02-15T15:49:50;11.60;99.90
21033;DHT22;10675;47.976;7.824;2023-02-15T15:52:21;11.70;99.60
21033;DHT22;10675;47.976;7.824;2023-02-15T15:54:51;12.80;99.90
21033;DHT22;10675;47.976;7.824;2023-02-15T15:57:40;13.10;96.50
21033;DHT22;10675;47.976;7.824;2023-02-15T16:02:56;10.90;96.70
21033;DHT22;10675;47.976;7.824;2023-02-15T16:05:22;10.50;97.20
21033;DHT22;10675;47.976;7.824;2023-02-15T16:07:48;10.30;98.00
21033;DHT22;10675;47.976;7.824;2023-02-15T16:10:28;10.20;98.00
21033;DHT22;10675;47.976;7.824;2023-02-15T16:12:57;10.10;98.20
21033;DHT22;10675;47.976;7.824;2023-02-15T16:15:25;9.80;99.10
21033;DHT22;10675;47.976;7.824;2023-02-15T16:17:57;9.40;99.70
21033;DHT22;10675;47.976;7.824;2023-02-15T16:20:35;9.10;99.90
21033;DHT22;10675;47.976;7.824;2023-02-15T16:23:12;8.80;99.90
21033;DHT22;10675;47.976;7.824;2023-02-15T16:28:12;8.50;99.90
21033;DHT22;10675;47.976;7.824;2023-02-15T16:30:39;8.50;99.90
21033;DHT22;10675;47.976;7.824;2023-02-15T16:33:14;8.30;99.90
21033;DHT22;10675;47.976;7.824;2023-02-15T16:38:21;8.00;99.90
21033;DHT22;10675;47.976;7.824;2023-02-15T16:40:55;8.00;99.90
21033;DHT22;10675;47.976;7.824;2023-02-15T16:43:25;7.80;99.90
21033;DHT22;10675;47.976;7.824;2023-02-15T16:45:58;7.70;99.90
21033;DHT22;10675;47.976;7.824;2023-02-15T16:48:25;7.40;99.90
21033;DHT22;10675;47.976;7.824;2023-02-15T16:50:54;7.20;99.90
21033;DHT22;10675;47.976;7.824;2023-02-15T16:53:24;7.00;99.90
21033;DHT22;10675;47.976;7.824;2023-02-15T16:55:55;6.90;99.90
21033;DHT22;10675;47.976;7.824;2023-02-15T17:00:57;6.60;99.90
21033;DHT22;10675;47.976;7.824;2023-02-15T17:03:24;6.50;99.90
21033;DHT22;10675;47.976;7.824;2023-02-15T17:06:00;6.40;99.90
21033;DHT22;10675;47.976;7.824;2023-02-15T17:08:43;6.20;99.90
21033;DHT22;10675;47.976;7.824;2023-02-15T17:11:33;6.10;99.90
21033;DHT22;10675;47.976;7.824;2023-02-15T17:21:56;5.70;99.90
21033;DHT22;10675;47.976;7.824;2023-02-15T17:24:39;5.50;99.90
21033;DHT22;10675;47.976;7.824;2023-02-15T17:27:12;5.40;99.90
21033;DHT22;10675;47.976;7.824;2023-02-15T17:29:40;5.30;99.90
21033;DHT22;10675;47.976;7.824;2023-02-15T17:32:16;5.20;99.90
21033;DHT22;10675;47.976;7.824;2023-02-15T17:40:47;5.10;99.90
21033;DHT22;10675;47.976;7.824;2023-02-15T17:43:06;5.00;99.90
21033;DHT22;10675;47.976;7.824;2023-02-15T17:45:41;5.00;99.90
21033;DHT22;10675;47.976;7.824;2023-02-15T17:48:21;4.90;99.90
21033;DHT22;10675;47.976;7.824;2023-02-15T17:50:47;4.90;99.90
21033;DHT22;10675;47.976;7.824;2023-02-15T17:53:16;4.80;99.90
21033;DHT22;10675;47.976;7.824;2023-02-15T17:55:42;4.70;99.90
21033;DHT22;10675;47.976;7.824;2023-02-15T17:58:13;4.70;99.90
21033;DHT22;10675;47.976;7.824;2023-02-15T18:00:44;4.60;99.90
21033;DHT22;10675;47.976;7.824;2023-02-15T18:03:43;4.50;99.90
21033;DHT22;10675;47.976;7.824;2023-02-15T18:06:28;4.60;99.90
21033;DHT22;10675;47.976;7.824;2023-02-15T18:09:14;4.60;99.90
21033;DHT22;10675;47.976;7.824;2023-02-15T18:11:59;4.60;99.90
21033;DHT22;10675;47.976;7.824;2023-02-15T18:14:25;4.50;99.90
21033;DHT22;10675;47.976;7.824;2023-02-15T18:16:51;4.40;99.90
21033;DHT22;10675;47.976;7.824;2023-02-15T18:19:20;4.40;99.90
21033;DHT22;10675;47.976;7.824;2023-02-15T18:21:47;4.40;99.90
21033;DHT22;10675;47.976;7.824;2023-02-15T18:24:21;4.40;99.90
21033;DHT22;10675;47.976;7.824;2023-02-15T18:26:48;4.30;99.90
21033;DHT22;10675;47.976;7.824;2023-02-15T18:29:14;4.20;99.90
21033;DHT22;10675;47.976;7.824;2023-02-15T18:31:40;4.20;99.90
21033;DHT22;10675;47.976;7.824;2023-02-15T18:34:20;4.20;99.90
21033;DHT22;10675;47.976;7.824;2023-02-15T18:36:46;4.20;99.90
21033;DHT22;10675;47.976;7.824;2023-02-15T18:39:42;4.10;99.90
21033;DHT22;10675;47.976;7.824;2023-02-15T18:44:54;4.00;99.90
21033;DHT22;10675;47.976;7.824;2023-02-15T18:47:20;4.00;99.90
21033;DHT22;10675;47.976;7.824;2023-02-15T18:49:46;4.00;99.90
21033;DHT22;10675;47.976;7.824;2023-02-15T18:52:21;4.00;99.90
21033;DHT22;10675;47.976;7.824;2023-02-15T18:54:57;3.90;99.90
21033;DHT22;10675;47.976;7.824;2023-02-15T18:57:23;3.90;99.90
21033;DHT22;10675;47.976;7.824;2023-02-15T18:59:48;3.80;99.90
21033;DHT22;10675;47.976;7.824;2023-02-15T19:02:16;3.70;99.90
21033;DHT22;10675;47.976;7.824;2023-02-15T19:04:43;3.70;99.90